Time;durP1;ratioP1;P1;durP2;ratioP2;P2;SDS_P1;SDS_P2;PMS_P1;PMS_P2;Temp;Humidity;BMP_temperature;BMP_pressure;BME280_temperature;BME280_humidity;BME280_pressure;Samples;Min_cycle;Max_cycle;Signal;HPM_P1;HPM_P2
2022/12/02 00:02:21;;;;;;;151.70;44.28;;;;;;;;;;5030087;28;20065;-74
2022/12/02 00:04:50;;;;;;;118.80;33.20;;;;;;;;;;5031730;28;20025;-74
2022/12/02 00:07:19;;;;;;;158.93;44.22;;;;;;;;;;5030983;28;20044;-74
2022/12/02 00:09:46;;;;;;;162.60;45.65;;;;;;;;;;5032266;28;20040;-74
2022/12/02 00:12:25;;;;;;;156.60;43.35;;;;;;;;;;5030033;28;20030;-74
2022/12/02 00:14:55;;;;;;;151.13;43.78;;;;;;;;;;5031583;28;20040;-74
2022/12/02 00:17:21;;;;;;;155.13;43.05;;;;;;;;;;5030990;28;20025;-75
2022/12/02 00:19:47;;;;;;;161.65;46.58;;;;;;;;;;5030299;28;20080;-74
2022/12/02 00:22:13;;;;;;;168.55;47.35;;;;;;;;;;5031313;28;20033;-74
2022/12/02 00:24:39;;;;;;;161.10;48.40;;;;;;;;;;5032002;28;20057;-74
2022/12/02 00:27:05;;;;;;;170.27;49.85;;;;;;;;;;5031073;28;20030;-74
2022/12/02 00:29:31;;;;;;;165.30;51.53;;;;;;;;;;5030915;28;20037;-74
2022/12/02 00:31:57;;;;;;;155.27;47.90;;;;;;;;;;5031196;28;20079;-74
2022/12/02 00:34:23;;;;;;;163.68;49.22;;;;;;;;;;5031950;28;20025;-75
2022/12/02 00:36:49;;;;;;;166.20;50.35;;;;;;;;;;5030780;28;20040;-75
2022/12/02 00:39:15;;;;;;;166.93;47.90;;;;;;;;;;5031443;28;20030;-73
2022/12/02 00:41:41;;;;;;;163.80;49.85;;;;;;;;;;5031001;28;20048;-75
2022/12/02 00:46:51;;;;;;;170.95;51.10;;;;;;;;;;5030840;28;20497;-73
2022/12/02 00:49:17;;;;;;;167.90;51.60;;;;;;;;;;5031597;28;20029;-73
2022/12/02 00:51:44;;;;;;;163.82;49.30;;;;;;;;;;5031655;28;20030;-73
2022/12/02 00:54:11;;;;;;;159.32;48.03;;;;;;;;;;5030874;28;20478;-75
2022/12/02 00:56:37;;;;;;;164.85;50.60;;;;;;;;;;5031449;28;20037;-75
2022/12/02 00:59:03;;;;;;;159.57;46.65;;;;;;;;;;5031117;28;20029;-75
2022/12/02 01:01:29;;;;;;;170.70;49.75;;;;;;;;;;5030340;28;20030;-75
2022/12/02 01:03:55;;;;;;;155.15;48.63;;;;;;;;;;5037716;28;20097;-75
2022/12/02 01:06:21;;;;;;;165.80;48.10;;;;;;;;;;5034776;28;20531;-75
2022/12/02 01:08:47;;;;;;;151.02;45.55;;;;;;;;;;5035041;28;20490;-75
2022/12/02 01:11:14;;;;;;;157.32;45.80;;;;;;;;;;5033668;28;20030;-75
2022/12/02 01:13:40;;;;;;;156.07;45.35;;;;;;;;;;5033582;28;20024;-75
2022/12/02 01:16:06;;;;;;;146.50;45.83;;;;;;;;;;5033170;28;20032;-75
2022/12/02 01:18:32;;;;;;;154.52;46.20;;;;;;;;;;5032716;28;20014;-75
2022/12/02 01:20:58;;;;;;;155.20;45.80;;;;;;;;;;5036430;28;20021;-74
2022/12/02 01:23:24;;;;;;;154.82;43.50;;;;;;;;;;5055639;28;20018;-75
2022/12/02 01:25:50;;;;;;;145.13;44.30;;;;;;;;;;5038999;28;20022;-75
2022/12/02 01:28:16;;;;;;;156.30;45.08;;;;;;;;;;5051636;28;20048;-74
2022/12/02 01:30:42;;;;;;;149.18;44.95;;;;;;;;;;5048798;28;20022;-75
2022/12/02 01:33:08;;;;;;;153.80;46.00;;;;;;;;;;5044328;28;20370;-73
2022/12/02 01:35:34;;;;;;;149.82;46.55;;;;;;;;;;5050126;28;20036;-74
2022/12/02 01:38:00;;;;;;;148.18;44.75;;;;;;;;;;5046708;28;20026;-74
2022/12/02 01:40:27;;;;;;;145.27;46.00;;;;;;;;;;5039198;28;20034;-74
2022/12/02 01:42:53;;;;;;;140.25;44.47;;;;;;;;;;5036298;28;20049;-74
2022/12/02 01:45:20;;;;;;;130.82;43.03;;;;;;;;;;5034547;28;20095;-75
2022/12/02 01:47:46;;;;;;;135.00;43.47;;;;;;;;;;5031197;28;20021;-76
2022/12/02 01:50:13;;;;;;;145.95;45.67;;;;;;;;;;5030849;28;20036;-75
2022/12/02 01:52:39;;;;;;;144.45;46.63;;;;;;;;;;5030658;28;20034;-74
2022/12/02 01:55:06;;;;;;;141.75;46.50;;;;;;;;;;5032288;28;20044;-75
2022/12/02 01:57:32;;;;;;;155.10;50.70;;;;;;;;;;5033595;28;20053;-74
2022/12/02 01:59:58;;;;;;;146.13;48.17;;;;;;;;;;5033727;28;20464;-74
2022/12/02 02:02:25;;;;;;;156.45;48.58;;;;;;;;;;5033071;28;20033;-74
2022/12/02 02:04:52;;;;;;;151.45;52.35;;;;;;;;;;5033829;28;20026;-74
2022/12/02 02:07:18;;;;;;;151.18;51.65;;;;;;;;;;5033563;28;20020;-75
2022/12/02 02:09:44;;;;;;;148.98;50.88;;;;;;;;;;5033552;28;20021;-74
2022/12/02 02:12:10;;;;;;;150.27;50.97;;;;;;;;;;5031891;28;20029;-75
2022/12/02 02:14:35;;;;;;;161.27;53.50;;;;;;;;;;5033654;28;20028;-74
2022/12/02 02:17:01;;;;;;;162.38;53.45;;;;;;;;;;5031961;28;20025;-74
2022/12/02 02:19:27;;;;;;;163.13;52.60;;;;;;;;;;5032214;28;20116;-74
2022/12/02 02:21:54;;;;;;;155.45;52.53;;;;;;;;;;5033354;28;20031;-74
2022/12/02 02:24:20;;;;;;;153.68;53.70;;;;;;;;;;5033474;28;20018;-74
2022/12/02 02:26:46;;;;;;;154.32;53.33;;;;;;;;;;5032685;28;20374;-74
2022/12/02 02:29:11;;;;;;;166.15;55.83;;;;;;;;;;5032150;28;20025;-75
2022/12/02 02:31:38;;;;;;;161.23;53.78;;;;;;;;;;5033755;28;20033;-74
2022/12/02 02:34:04;;;;;;;160.38;54.95;;;;;;;;;;5033393;28;20029;-74
2022/12/02 02:36:30;;;;;;;152.35;53.55;;;;;;;;;;5032799;28;20022;-75
2022/12/02 02:38:56;;;;;;;149.20;53.05;;;;;;;;;;5033118;28;20052;-74
2022/12/02 02:41:22;;;;;;;160.20;55.58;;;;;;;;;;5031963;28;20124;-75
2022/12/02 02:43:48;;;;;;;151.60;55.40;;;;;;;;;;5031665;28;20371;-75
2022/12/02 02:46:15;;;;;;;152.70;54.53;;;;;;;;;;5032694;28;20112;-75
2022/12/02 02:48:41;;;;;;;159.00;56.88;;;;;;;;;;5032065;28;20025;-73
2022/12/02 02:51:08;;;;;;;154.30;55.78;;;;;;;;;;5032957;28;20028;-75
2022/12/02 02:53:34;;;;;;;146.45;54.50;;;;;;;;;;5033382;28;20033;-74
2022/12/02 02:56:00;;;;;;;157.77;55.17;;;;;;;;;;5033424;28;20036;-75
2022/12/02 02:58:27;;;;;;;149.10;55.15;;;;;;;;;;5031739;28;20021;-75
2022/12/02 03:00:57;;;;;;;152.60;55.67;;;;;;;;;;5032548;28;20611;-74
2022/12/02 03:03:25;;;;;;;163.70;59.40;;;;;;;;;;5033111;28;20029;-74
2022/12/02 03:05:52;;;;;;;148.75;56.97;;;;;;;;;;5032338;28;20025;-74
2022/12/02 03:08:19;;;;;;;150.52;56.55;;;;;;;;;;5034080;28;20030;-74
2022/12/02 03:10:45;;;;;;;148.60;57.15;;;;;;;;;;5032637;28;20033;-74
2022/12/02 03:13:12;;;;;;;150.95;57.83;;;;;;;;;;5033865;28;20024;-74
2022/12/02 03:15:38;;;;;;;152.52;58.92;;;;;;;;;;5033326;28;20021;-75
2022/12/02 03:18:04;;;;;;;151.80;57.40;;;;;;;;;;5034275;28;20033;-74
2022/12/02 03:20:30;;;;;;;159.18;58.72;;;;;;;;;;5032315;28;20140;-75
2022/12/02 03:22:56;;;;;;;152.50;57.35;;;;;;;;;;5033812;28;20033;-74
2022/12/02 03:25:22;;;;;;;157.75;58.30;;;;;;;;;;5033477;28;20109;-74
2022/12/02 03:27:47;;;;;;;154.90;57.75;;;;;;;;;;5033618;28;20021;-75
2022/12/02 03:30:14;;;;;;;152.00;58.33;;;;;;;;;;5033986;28;20027;-76
2022/12/02 03:32:40;;;;;;;150.18;58.15;;;;;;;;;;5033947;28;20053;-75
2022/12/02 03:35:06;;;;;;;148.60;59.22;;;;;;;;;;5033897;28;20533;-73
2022/12/02 03:37:32;;;;;;;156.70;59.10;;;;;;;;;;5033971;28;20498;-73
2022/12/02 03:39:58;;;;;;;148.13;57.58;;;;;;;;;;5036314;28;20032;-74
2022/12/02 03:42:25;;;;;;;151.27;59.50;;;;;;;;;;5038195;28;20021;-74
2022/12/02 03:44:51;;;;;;;153.85;58.53;;;;;;;;;;5036155;28;20072;-74
2022/12/02 03:47:17;;;;;;;157.82;58.15;;;;;;;;;;5035779;28;20021;-75
2022/12/02 03:49:43;;;;;;;162.52;60.45;;;;;;;;;;5037511;28;20028;-74
2022/12/02 03:52:10;;;;;;;151.85;58.95;;;;;;;;;;5031358;28;20030;-75
2022/12/02 03:54:36;;;;;;;158.00;58.33;;;;;;;;;;5033001;28;20033;-76
2022/12/02 03:57:04;;;;;;;153.68;59.58;;;;;;;;;;5029976;28;20041;-76
2022/12/02 03:59:30;;;;;;;156.07;59.90;;;;;;;;;;5032613;28;20554;-76
2022/12/02 04:01:56;;;;;;;155.07;59.83;;;;;;;;;;5032713;28;20109;-76
2022/12/02 04:06:51;;;;;;;156.27;59.53;;;;;;;;;;4994659;28;19968;-77
2022/12/02 04:09:16;;;;;;;148.10;57.50;;;;;;;;;;5000499;28;20095;-75
2022/12/02 04:11:42;;;;;;;151.75;60.42;;;;;;;;;;5014355;28;20027;-76
2022/12/02 04:14:08;;;;;;;159.32;60.83;;;;;;;;;;5000446;28;20113;-76
2022/12/02 04:16:34;;;;;;;155.73;60.10;;;;;;;;;;4995820;28;20030;-77
2022/12/02 04:19:00;;;;;;;164.10;62.20;;;;;;;;;;4996544;28;20061;-77
2022/12/02 04:21:26;;;;;;;164.15;61.58;;;;;;;;;;4995576;28;20391;-77
2022/12/02 04:23:53;;;;;;;146.32;57.95;;;;;;;;;;5004022;28;20387;-78
2022/12/02 04:26:19;;;;;;;162.05;61.33;;;;;;;;;;5013739;28;20031;-77
2022/12/02 04:28:45;;;;;;;158.55;60.10;;;;;;;;;;5010960;28;20114;-77
2022/12/02 04:31:11;;;;;;;158.07;59.95;;;;;;;;;;4997507;28;20065;-78
2022/12/02 04:33:36;;;;;;;156.02;59.95;;;;;;;;;;5000522;28;20023;-78
2022/12/02 04:36:03;;;;;;;148.27;59.00;;;;;;;;;;4999592;28;20037;-72
2022/12/02 04:38:28;;;;;;;156.60;58.42;;;;;;;;;;5020370;28;20030;-72
2022/12/02 04:40:54;;;;;;;163.02;60.88;;;;;;;;;;5003338;28;20077;-70
2022/12/02 04:43:20;;;;;;;154.63;58.75;;;;;;;;;;5003544;28;20113;-71
2022/12/02 04:45:46;;;;;;;158.05;61.03;;;;;;;;;;5003655;28;20144;-71
2022/12/02 04:48:12;;;;;;;158.10;61.35;;;;;;;;;;5001178;28;20451;-71
2022/12/02 04:50:38;;;;;;;154.35;59.20;;;;;;;;;;4999438;28;20022;-71
2022/12/02 04:53:04;;;;;;;160.38;60.08;;;;;;;;;;5000716;28;20030;-72
2022/12/02 04:55:30;;;;;;;153.80;59.88;;;;;;;;;;5015562;28;20122;-70
2022/12/02 04:57:56;;;;;;;156.52;59.75;;;;;;;;;;4992985;28;20030;-74
2022/12/02 05:00:22;;;;;;;147.02;58.65;;;;;;;;;;4993233;28;20030;-72
2022/12/02 05:02:48;;;;;;;159.68;60.60;;;;;;;;;;4993231;28;20080;-74
2022/12/02 05:05:14;;;;;;;157.00;58.97;;;;;;;;;;4993056;28;20034;-72
2022/12/02 05:07:40;;;;;;;147.80;56.42;;;;;;;;;;4992742;28;20031;-74
2022/12/02 05:10:06;;;;;;;150.18;58.08;;;;;;;;;;4993400;28;20033;-73
2022/12/02 05:12:32;;;;;;;156.48;58.80;;;;;;;;;;4994173;28;20394;-74
2022/12/02 05:14:58;;;;;;;146.05;58.13;;;;;;;;;;4993302;28;20027;-73
2022/12/02 05:17:24;;;;;;;150.38;58.88;;;;;;;;;;4992622;28;20034;-73
2022/12/02 05:19:50;;;;;;;158.02;59.20;;;;;;;;;;4992876;28;20107;-73
2022/12/02 05:22:16;;;;;;;158.43;60.08;;;;;;;;;;4992937;28;20030;-73
2022/12/02 05:24:42;;;;;;;156.27;62.50;;;;;;;;;;4992952;28;20026;-74
2022/12/02 05:27:08;;;;;;;159.65;61.78;;;;;;;;;;4992713;28;20030;-73
2022/12/02 05:29:34;;;;;;;152.52;58.65;;;;;;;;;;4995515;28;20212;-76
2022/12/02 05:32:00;;;;;;;149.27;58.78;;;;;;;;;;4998145;28;20026;-75
2022/12/02 05:34:26;;;;;;;156.32;58.78;;;;;;;;;;4997632;28;20551;-74
2022/12/02 05:36:52;;;;;;;149.38;58.83;;;;;;;;;;4997418;28;20038;-74
2022/12/02 05:39:18;;;;;;;144.43;58.40;;;;;;;;;;4997807;28;20069;-78
2022/12/02 05:41:44;;;;;;;152.20;58.88;;;;;;;;;;4997754;28;20033;-73
2022/12/02 05:44:19;;;;;;;139.55;55.80;;;;;;;;;;4996841;28;20530;-75
2022/12/02 05:46:45;;;;;;;151.68;58.53;;;;;;;;;;4996271;28;20023;-74
2022/12/02 05:49:16;;;;;;;144.68;55.83;;;;;;;;;;4996843;28;20026;-73
2022/12/02 05:51:42;;;;;;;148.38;58.50;;;;;;;;;;4996818;28;20053;-72
2022/12/02 05:54:08;;;;;;;146.80;58.42;;;;;;;;;;4996369;28;20504;-73
2022/12/02 05:56:34;;;;;;;143.77;56.95;;;;;;;;;;4995817;28;20041;-75
2022/12/02 05:59:07;;;;;;;149.48;58.33;;;;;;;;;;4996462;28;20368;-73
2022/12/02 06:01:36;;;;;;;142.02;57.45;;;;;;;;;;4996292;28;20035;-73
2022/12/02 06:04:02;;;;;;;143.05;57.20;;;;;;;;;;4995956;28;20018;-75
2022/12/02 06:06:29;;;;;;;150.77;58.50;;;;;;;;;;4996025;28;20038;-73
2022/12/02 06:08:56;;;;;;;142.95;57.17;;;;;;;;;;5012571;28;20086;-73
2022/12/02 06:11:29;;;;;;;141.43;57.08;;;;;;;;;;4996094;28;20088;-72
2022/12/02 06:13:58;;;;;;;137.40;56.10;;;;;;;;;;4996128;28;20033;-73
2022/12/02 06:16:26;;;;;;;145.65;58.85;;;;;;;;;;4995499;28;20093;-76
2022/12/02 06:18:53;;;;;;;137.05;54.92;;;;;;;;;;4996712;28;20346;-73
2022/12/02 06:21:20;;;;;;;144.38;57.20;;;;;;;;;;4997000;28;20058;-74
2022/12/02 06:23:48;;;;;;;144.77;57.75;;;;;;;;;;4996566;28;20053;-72
2022/12/02 06:26:15;;;;;;;136.20;54.58;;;;;;;;;;4996018;28;20043;-74
2022/12/02 06:28:43;;;;;;;136.23;55.60;;;;;;;;;;5002887;28;20026;-76
2022/12/02 06:31:15;;;;;;;135.18;54.67;;;;;;;;;;5015020;28;20125;-74
2022/12/02 06:33:41;;;;;;;139.20;56.30;;;;;;;;;;5005489;28;20134;-75
2022/12/02 06:36:16;;;;;;;139.20;54.72;;;;;;;;;;5005260;28;20014;-74
2022/12/02 06:38:47;;;;;;;132.63;53.22;;;;;;;;;;5006075;28;20018;-75
2022/12/02 06:41:24;;;;;;;131.55;53.85;;;;;;;;;;5016671;28;20577;-74
2022/12/02 06:46:35;;;;;;;133.70;53.38;;;;;;;;;;5004701;28;20037;-73
2022/12/02 06:49:13;;;;;;;123.45;51.97;;;;;;;;;;5002448;28;20022;-76
2022/12/02 06:51:39;;;;;;;128.90;53.38;;;;;;;;;;4985170;28;20085;-76
2022/12/02 06:54:13;;;;;;;139.43;54.22;;;;;;;;;;4996108;28;20042;-75
2022/12/02 06:56:39;;;;;;;135.48;55.35;;;;;;;;;;4991239;28;20101;-75
2022/12/02 06:59:05;;;;;;;138.50;55.35;;;;;;;;;;4984115;28;20603;-75
2022/12/02 07:01:40;;;;;;;135.57;54.10;;;;;;;;;;5004579;28;20049;-75
2022/12/02 07:04:06;;;;;;;127.20;53.00;;;;;;;;;;5013140;28;20015;-74
2022/12/02 07:06:33;;;;;;;131.00;52.65;;;;;;;;;;5022132;28;20033;-76
2022/12/02 07:09:00;;;;;;;139.77;54.00;;;;;;;;;;5003824;28;20034;-73
2022/12/02 07:11:49;;;;;;;131.85;52.80;;;;;;;;;;5004068;28;20058;-74
2022/12/02 07:14:24;;;;;;;126.85;51.42;;;;;;;;;;4996736;28;20042;-73
2022/12/02 07:16:51;;;;;;;127.43;52.28;;;;;;;;;;4990843;28;20098;-74
2022/12/02 07:19:19;;;;;;;127.82;52.20;;;;;;;;;;4993493;28;20033;-74
2022/12/02 07:21:46;;;;;;;126.72;51.42;;;;;;;;;;4990578;28;20480;-75
2022/12/02 07:24:15;;;;;;;124.78;50.55;;;;;;;;;;4992796;28;20034;-74
2022/12/02 07:26:42;;;;;;;119.63;50.30;;;;;;;;;;4995124;28;20029;-74
2022/12/02 07:29:10;;;;;;;127.78;52.20;;;;;;;;;;4986768;28;20037;-73
2022/12/02 07:31:37;;;;;;;124.47;50.95;;;;;;;;;;4989769;28;20586;-71
2022/12/02 07:34:03;;;;;;;137.38;52.88;;;;;;;;;;4991127;28;20442;-72
2022/12/02 07:36:29;;;;;;;127.50;51.42;;;;;;;;;;4978481;28;20026;-72
2022/12/02 07:38:55;;;;;;;129.98;52.10;;;;;;;;;;4991762;28;20080;-73
2022/12/02 07:41:21;;;;;;;122.20;49.58;;;;;;;;;;4988453;28;20086;-74
2022/12/02 07:43:47;;;;;;;134.65;53.38;;;;;;;;;;5003646;28;20030;-74
2022/12/02 07:46:13;;;;;;;123.57;50.08;;;;;;;;;;5002052;28;20033;-73
2022/12/02 07:48:39;;;;;;;127.75;51.13;;;;;;;;;;5001774;28;20026;-75
2022/12/02 07:51:05;;;;;;;123.40;50.88;;;;;;;;;;5011469;28;20022;-73
2022/12/02 07:53:31;;;;;;;127.68;51.97;;;;;;;;;;5000550;28;20030;-74
2022/12/02 07:55:57;;;;;;;126.35;51.40;;;;;;;;;;4999644;28;20557;-75
2022/12/02 07:58:23;;;;;;;118.93;50.45;;;;;;;;;;5000483;28;20033;-79
2022/12/02 08:00:49;;;;;;;125.75;51.53;;;;;;;;;;5004180;28;20030;-78
2022/12/02 08:03:15;;;;;;;123.47;49.15;;;;;;;;;;5007036;28;20054;-74
2022/12/02 08:05:40;;;;;;;124.85;48.42;;;;;;;;;;4995444;28;20030;-75
2022/12/02 08:08:06;;;;;;;127.75;49.22;;;;;;;;;;4994291;28;20026;-74
2022/12/02 08:10:32;;;;;;;119.80;49.22;;;;;;;;;;4993543;28;20027;-75
2022/12/02 08:12:58;;;;;;;125.65;49.72;;;;;;;;;;4994324;28;20038;-76
2022/12/02 08:15:24;;;;;;;121.88;49.28;;;;;;;;;;4993834;28;20026;-75
2022/12/02 08:17:50;;;;;;;122.90;49.03;;;;;;;;;;4996043;28;20089;-74
2022/12/02 08:20:16;;;;;;;120.35;48.80;;;;;;;;;;4997305;28;20557;-73
2022/12/02 08:22:42;;;;;;;126.78;50.90;;;;;;;;;;4995456;28;20030;-76
2022/12/02 08:25:09;;;;;;;112.50;47.28;;;;;;;;;;4993722;28;20061;-74
2022/12/02 08:27:38;;;;;;;126.57;49.92;;;;;;;;;;4991804;28;20065;-75
2022/12/02 08:30:05;;;;;;;126.40;50.85;;;;;;;;;;4993736;28;20022;-75
2022/12/02 08:32:31;;;;;;;124.97;50.15;;;;;;;;;;4993710;28;20114;-75
2022/12/02 08:34:57;;;;;;;115.93;48.63;;;;;;;;;;4994083;28;20077;-74
2022/12/02 08:37:23;;;;;;;121.45;49.53;;;;;;;;;;4994240;28;20038;-75
2022/12/02 08:39:49;;;;;;;118.00;48.40;;;;;;;;;;4995907;28;20022;-75
2022/12/02 08:42:14;;;;;;;143.65;60.40;;;;;;;;;;4992840;28;20085;-75
2022/12/02 08:44:40;;;;;;;119.07;49.50;;;;;;;;;;4995121;28;20155;-74
2022/12/02 08:47:06;;;;;;;125.30;49.47;;;;;;;;;;4994232;28;20026;-74
2022/12/02 08:49:32;;;;;;;118.00;49.33;;;;;;;;;;4994456;28;20412;-74
2022/12/02 08:51:58;;;;;;;121.85;48.53;;;;;;;;;;4994151;28;20517;-74
2022/12/02 08:54:24;;;;;;;130.65;49.70;;;;;;;;;;4994688;28;20530;-73
2022/12/02 08:56:50;;;;;;;126.95;50.97;;;;;;;;;;4996620;28;20026;-75
2022/12/02 08:59:16;;;;;;;118.30;49.25;;;;;;;;;;4997983;28;20053;-75
2022/12/02 09:01:42;;;;;;;120.90;48.67;;;;;;;;;;4997331;28;20037;-75
2022/12/02 09:04:08;;;;;;;118.85;50.90;;;;;;;;;;4998170;28;20027;-75
2022/12/02 09:06:34;;;;;;;120.90;50.65;;;;;;;;;;5000157;28;20519;-73
2022/12/02 09:09:00;;;;;;;117.78;48.83;;;;;;;;;;5006179;28;20023;-75
2022/12/02 09:11:26;;;;;;;119.72;48.10;;;;;;;;;;5009104;28;20029;-75
2022/12/02 09:13:52;;;;;;;114.88;49.05;;;;;;;;;;5004398;28;20072;-75
2022/12/02 09:16:18;;;;;;;118.05;48.22;;;;;;;;;;5010207;28;20027;-74
2022/12/02 09:18:44;;;;;;;121.50;50.22;;;;;;;;;;5016489;28;20023;-76
2022/12/02 09:21:10;;;;;;;119.22;48.90;;;;;;;;;;5010307;28;20031;-77
2022/12/02 09:23:36;;;;;;;122.40;49.70;;;;;;;;;;5001925;28;20030;-75
2022/12/02 09:26:02;;;;;;;119.40;47.90;;;;;;;;;;5001779;28;20026;-75
2022/12/02 09:28:28;;;;;;;128.40;50.88;;;;;;;;;;5002815;28;20033;-76
2022/12/02 09:30:54;;;;;;;125.13;50.22;;;;;;;;;;5005499;28;20042;-76
2022/12/02 09:33:19;;;;;;;131.15;52.47;;;;;;;;;;5005825;28;20034;-76
2022/12/02 09:35:45;;;;;;;119.50;50.95;;;;;;;;;;5005789;28;20041;-75
2022/12/02 09:38:11;;;;;;;126.10;51.53;;;;;;;;;;5003827;28;20089;-74
2022/12/02 09:40:37;;;;;;;123.55;50.28;;;;;;;;;;5007719;28;20030;-75
2022/12/02 09:43:04;;;;;;;118.97;48.00;;;;;;;;;;5004917;28;20073;-76
2022/12/02 09:45:30;;;;;;;128.82;51.55;;;;;;;;;;5002377;28;20026;-75
2022/12/02 09:47:56;;;;;;;135.05;51.15;;;;;;;;;;5006614;28;20053;-75
2022/12/02 09:50:22;;;;;;;127.15;51.70;;;;;;;;;;5013796;28;20018;-75
2022/12/02 09:52:49;;;;;;;125.60;51.45;;;;;;;;;;5017952;28;20043;-75
2022/12/02 09:55:16;;;;;;;126.63;50.15;;;;;;;;;;5019637;28;20038;-75
2022/12/02 09:57:42;;;;;;;125.53;50.75;;;;;;;;;;5019145;28;20033;-76
2022/12/02 10:00:12;;;;;;;132.98;54.28;;;;;;;;;;5019305;28;20027;-75
2022/12/02 10:02:43;;;;;;;130.68;52.38;;;;;;;;;;5004816;28;20105;-75
2022/12/02 10:05:15;;;;;;;129.35;52.00;;;;;;;;;;4999125;28;20031;-77
2022/12/02 10:07:41;;;;;;;123.40;52.08;;;;;;;;;;4998678;28;20054;-77
2022/12/02 10:10:10;;;;;;;123.32;52.03;;;;;;;;;;4999886;28;20030;-76
2022/12/02 10:12:36;;;;;;;130.68;52.10;;;;;;;;;;4997706;28;20022;-76
2022/12/02 10:15:02;;;;;;;132.85;52.25;;;;;;;;;;4995380;28;20034;-76
2022/12/02 10:17:28;;;;;;;130.35;51.33;;;;;;;;;;4993094;28;20037;-80
2022/12/02 10:19:54;;;;;;;133.98;54.60;;;;;;;;;;4992129;28;20037;-77
2022/12/02 10:22:21;;;;;;;129.30;53.00;;;;;;;;;;4997555;28;20026;-80
2022/12/02 10:24:47;;;;;;;132.38;54.22;;;;;;;;;;4996871;28;20046;-78
2022/12/02 10:27:23;;;;;;;134.45;53.40;;;;;;;;;;4997488;28;20497;-75
2022/12/02 10:29:49;;;;;;;131.77;52.65;;;;;;;;;;5001393;28;20081;-71
2022/12/02 10:32:20;;;;;;;130.27;52.47;;;;;;;;;;4997365;28;20066;-76
2022/12/02 10:35:00;;;;;;;132.30;53.60;;;;;;;;;;4999100;28;20030;-75
2022/12/02 10:37:26;;;;;;;135.15;54.53;;;;;;;;;;4996557;28;20026;-74
2022/12/02 10:40:11;;;;;;;128.35;51.63;;;;;;;;;;4997979;28;20098;-75
2022/12/02 10:42:36;;;;;;;136.10;54.10;;;;;;;;;;4997643;28;20030;-76
2022/12/02 10:45:08;;;;;;;137.73;53.53;;;;;;;;;;4998799;28;20390;-76
2022/12/02 10:47:34;;;;;;;135.00;52.50;;;;;;;;;;4998762;28;20034;-79
2022/12/02 10:50:00;;;;;;;131.60;53.05;;;;;;;;;;5000016;28;20213;-75
2022/12/02 10:52:32;;;;;;;135.48;54.42;;;;;;;;;;5001103;28;20491;-76
2022/12/02 10:55:00;;;;;;;136.80;53.42;;;;;;;;;;5001414;28;20117;-74
2022/12/02 10:57:27;;;;;;;135.63;53.60;;;;;;;;;;4997468;28;20078;-75
2022/12/02 10:59:55;;;;;;;130.88;53.03;;;;;;;;;;4999313;28;20033;-74
2022/12/02 11:02:24;;;;;;;134.38;54.45;;;;;;;;;;5011981;28;20407;-75
2022/12/02 11:04:50;;;;;;;139.00;55.63;;;;;;;;;;4966050;28;1044914;-74
2022/12/02 11:07:16;;;;;;;134.32;54.33;;;;;;;;;;5003419;28;20507;-76
2022/12/02 11:09:50;;;;;;;134.77;53.92;;;;;;;;;;4993558;28;20044;-76
2022/12/02 11:12:36;;;;;;;134.45;55.00;;;;;;;;;;5000084;28;20092;-75
2022/12/02 11:15:05;;;;;;;129.80;52.45;;;;;;;;;;4981873;28;20376;-76
2022/12/02 11:17:45;;;;;;;139.30;56.53;;;;;;;;;;4976838;28;20078;-76
2022/12/02 11:20:40;;;;;;;135.63;53.13;;;;;;;;;;4975996;28;20110;-75
2022/12/02 11:23:15;;;;;;;130.63;51.22;;;;;;;;;;4968560;28;20471;-75
2022/12/02 11:25:46;;;;;;;134.65;54.38;;;;;;;;;;4977182;28;20030;-74
2022/12/02 11:28:18;;;;;;;131.23;53.30;;;;;;;;;;4976344;28;20580;-74
2022/12/02 11:30:45;;;;;;;132.57;52.20;;;;;;;;;;4977130;28;20030;-75
2022/12/02 11:33:12;;;;;;;133.32;52.50;;;;;;;;;;4976780;28;20030;-75
2022/12/02 11:35:57;;;;;;;129.60;53.67;;;;;;;;;;4976344;28;20054;-76
2022/12/02 11:38:25;;;;;;;130.48;53.60;;;;;;;;;;4977656;28;20030;-73
2022/12/02 11:40:50;;;;;;;134.85;53.15;;;;;;;;;;4982996;28;20512;-74
2022/12/02 11:43:35;;;;;;;136.80;53.42;;;;;;;;;;4981019;28;20027;-75
2022/12/02 11:46:03;;;;;;;135.30;52.35;;;;;;;;;;4981494;28;20026;-74
2022/12/02 11:48:30;;;;;;;136.75;54.63;;;;;;;;;;4985239;28;20019;-73
2022/12/02 11:50:56;;;;;;;129.10;52.83;;;;;;;;;;4986286;28;20154;-74
2022/12/02 11:53:23;;;;;;;131.05;52.67;;;;;;;;;;4992021;28;20030;-71
2022/12/02 11:55:50;;;;;;;134.50;53.85;;;;;;;;;;4995642;28;20094;-73
2022/12/02 11:58:18;;;;;;;129.85;51.92;;;;;;;;;;4987645;28;20041;-76
2022/12/02 12:01:04;;;;;;;129.68;53.10;;;;;;;;;;4996109;28;20026;-70
2022/12/02 12:03:30;;;;;;;130.55;50.88;;;;;;;;;;4996865;28;20058;-73
2022/12/02 12:06:15;;;;;;;124.68;51.55;;;;;;;;;;4985987;28;20539;-74
2022/12/02 12:08:43;;;;;;;136.70;51.40;;;;;;;;;;4978030;28;20027;-75
2022/12/02 12:11:26;;;;;;;124.32;51.67;;;;;;;;;;4983837;28;20538;-75
2022/12/02 12:14:24;;;;;;;134.75;52.10;;;;;;;;;;4978961;28;20030;-75
2022/12/02 12:16:50;;;;;;;127.32;50.97;;;;;;;;;;4953875;28;20031;-73
2022/12/02 12:19:18;;;;;;;137.20;52.63;;;;;;;;;;4977810;28;20065;-75
2022/12/02 12:21:46;;;;;;;128.45;51.67;;;;;;;;;;4976416;28;20023;-74
2022/12/02 12:24:22;;;;;;;120.45;49.50;;;;;;;;;;4978316;28;20022;-73
2022/12/02 12:26:54;;;;;;;127.78;50.38;;;;;;;;;;4979709;28;20023;-72
2022/12/02 12:29:21;;;;;;;134.13;52.10;;;;;;;;;;4981875;28;20045;-71
2022/12/02 12:31:47;;;;;;;128.50;52.17;;;;;;;;;;4977289;28;20030;-76
2022/12/02 12:34:17;;;;;;;122.80;49.78;;;;;;;;;;4977509;28;20026;-75
2022/12/02 12:36:44;;;;;;;126.75;51.30;;;;;;;;;;4982323;28;20030;-74
2022/12/02 12:39:10;;;;;;;132.23;52.63;;;;;;;;;;4975151;28;20161;-74
2022/12/02 12:41:36;;;;;;;123.22;49.15;;;;;;;;;;4975653;28;20500;-75
2022/12/02 12:44:02;;;;;;;127.05;50.45;;;;;;;;;;4977386;28;20035;-75
2022/12/02 12:46:28;;;;;;;114.97;50.35;;;;;;;;;;4976107;28;20034;-75
2022/12/02 12:48:54;;;;;;;129.90;49.15;;;;;;;;;;4975871;28;20468;-76
2022/12/02 12:51:20;;;;;;;119.65;47.53;;;;;;;;;;4973709;28;20052;-74
2022/12/02 12:53:46;;;;;;;123.97;48.17;;;;;;;;;;4976682;28;20446;-76
2022/12/02 12:56:12;;;;;;;124.32;48.67;;;;;;;;;;4974930;28;20042;-74
2022/12/02 12:58:38;;;;;;;119.03;51.05;;;;;;;;;;4974976;28;20030;-75
2022/12/02 13:01:03;;;;;;;127.18;50.33;;;;;;;;;;4974794;28;20114;-75
2022/12/02 13:03:29;;;;;;;115.97;47.15;;;;;;;;;;5017416;28;20029;-72
2022/12/02 13:05:56;;;;;;;118.35;46.70;;;;;;;;;;5025814;28;20041;-74
2022/12/02 13:08:23;;;;;;;114.57;47.17;;;;;;;;;;5024383;28;20022;-78
2022/12/02 13:10:49;;;;;;;114.00;46.22;;;;;;;;;;5016095;28;20022;-75
2022/12/02 13:13:24;;;;;;;108.75;45.97;;;;;;;;;;5014063;28;20057;-74
2022/12/02 13:15:50;;;;;;;112.32;47.00;;;;;;;;;;4994774;28;20030;-75
2022/12/02 13:18:16;;;;;;;115.85;46.58;;;;;;;;;;4997360;28;20026;-75
2022/12/02 13:20:42;;;;;;;120.47;48.47;;;;;;;;;;4997167;28;20029;-77
2022/12/02 13:23:08;;;;;;;108.60;45.97;;;;;;;;;;4995997;28;20031;-74
2022/12/02 13:25:35;;;;;;;116.28;48.22;;;;;;;;;;4993467;28;20099;-76
2022/12/02 13:28:01;;;;;;;110.10;46.38;;;;;;;;;;4994642;28;20027;-73
2022/12/02 13:30:28;;;;;;;115.97;47.15;;;;;;;;;;4995902;28;20468;-74
2022/12/02 13:32:54;;;;;;;112.78;46.40;;;;;;;;;;4994379;28;20033;-74
2022/12/02 13:35:19;;;;;;;104.03;44.33;;;;;;;;;;4996295;28;20030;-73
2022/12/02 13:37:46;;;;;;;131.35;58.03;;;;;;;;;;4996972;28;20026;-74
2022/12/02 13:40:13;;;;;;;112.40;48.22;;;;;;;;;;4995965;28;20022;-75
2022/12/02 13:42:39;;;;;;;113.43;47.33;;;;;;;;;;4997782;28;20035;-75
2022/12/02 13:45:05;;;;;;;110.03;46.47;;;;;;;;;;4997140;28;20030;-76
2022/12/02 13:47:31;;;;;;;111.00;44.35;;;;;;;;;;4996867;28;20415;-75
2022/12/02 13:49:57;;;;;;;108.93;43.65;;;;;;;;;;5003645;28;20025;-73
2022/12/02 13:52:23;;;;;;;106.63;46.05;;;;;;;;;;5005998;28;20038;-74
2022/12/02 13:54:49;;;;;;;104.93;45.00;;;;;;;;;;5005322;28;20035;-73
2022/12/02 13:57:16;;;;;;;104.05;44.58;;;;;;;;;;5013844;28;20033;-71
2022/12/02 13:59:42;;;;;;;107.90;45.65;;;;;;;;;;5018319;28;20037;-74
2022/12/02 14:02:09;;;;;;;111.20;44.92;;;;;;;;;;5019765;28;20046;-72
2022/12/02 14:04:35;;;;;;;96.38;39.53;;;;;;;;;;5019026;28;20027;-73
2022/12/02 14:07:01;;;;;;;97.32;40.53;;;;;;;;;;5015378;28;20042;-73
2022/12/02 14:09:27;;;;;;;94.85;40.47;;;;;;;;;;5013892;28;20030;-76
2022/12/02 14:11:56;;;;;;;100.35;41.10;;;;;;;;;;5003577;28;20033;-76
2022/12/02 14:14:23;;;;;;;97.05;40.47;;;;;;;;;;5002197;28;20033;-74